createdAt,value
2022-11-29T00:00:03.270Z,54.41
2022-11-29T00:01:00.430Z,52.28
2022-11-29T00:02:00.660Z,52.65
2022-11-29T00:03:00.583Z,50.43
2022-11-29T00:04:00.514Z,54.05
2022-11-29T00:05:02.945Z,53.41
2022-11-29T00:06:00.377Z,54.28
2022-11-29T00:07:00.372Z,52.89
2022-11-29T00:08:00.820Z,52.74
2022-11-29T00:09:00.363Z,50.40
2022-11-29T00:13:01.634Z,52.25
2022-11-29T00:14:00.801Z,52.81
2022-11-29T00:15:01.436Z,50.92
2022-11-29T00:16:00.774Z,54.20
2022-11-29T00:17:00.623Z,55.05
2022-11-29T00:18:00.643Z,53.88
2022-11-29T00:19:01.385Z,52.20
2022-11-29T00:20:00.437Z,51.99
2022-11-29T00:24:00.462Z,51.22
2022-11-29T00:25:00.970Z,54.32
2022-11-29T00:26:00.395Z,55.36
2022-11-29T00:27:00.366Z,53.29
2022-11-29T00:28:00.390Z,51.56
2022-11-29T00:29:01.370Z,54.13
2022-11-29T00:36:00.462Z,52.23
2022-11-29T00:37:00.379Z,53.46
2022-11-29T00:38:00.558Z,50.34
2022-11-29T00:39:00.336Z,52.51
2022-11-29T00:40:00.488Z,51.66
2022-11-29T00:41:00.563Z,51.19
2022-11-29T00:42:00.677Z,50.69
2022-11-29T00:43:00.497Z,51.15
2022-11-29T00:44:00.503Z,51.18
2022-11-29T00:45:00.715Z,54.04
2022-11-29T00:48:00.971Z,50.50
2022-11-29T00:49:00.459Z,49.98
2022-11-29T00:50:02.364Z,51.55
2022-11-29T00:51:00.333Z,48.43
2022-11-29T00:52:01.403Z,49.84
2022-11-29T00:53:00.416Z,51.13
2022-11-29T00:54:01.814Z,53.24
2022-11-29T00:55:00.496Z,56.90
2022-11-29T00:56:00.437Z,50.30
2022-11-29T00:58:00.532Z,52.10
2022-11-29T00:59:00.977Z,47.19
2022-11-29T01:00:01.865Z,53.04
2022-11-29T01:01:00.491Z,52.62
2022-11-29T01:02:00.514Z,52.49
2022-11-29T01:03:00.410Z,55.92
2022-11-29T01:04:00.503Z,52.80
2022-11-29T01:05:00.408Z,51.08
2022-11-29T01:06:00.701Z,54.69
2022-11-29T01:07:00.555Z,52.01
2022-11-29T01:08:00.484Z,51.86
2022-11-29T01:09:01.091Z,49.36
2022-11-29T01:10:00.501Z,48.89
2022-11-29T01:11:00.461Z,55.28
2022-11-29T01:12:00.574Z,50.64
2022-11-29T01:13:01.628Z,59.50
2022-11-29T01:14:00.579Z,48.86
2022-11-29T01:15:01.541Z,49.89
2022-11-29T01:16:00.411Z,49.19
2022-11-29T01:19:01.401Z,56.34
2022-11-29T01:20:00.761Z,51.22
2022-11-29T01:21:04.738Z,57.68
2022-11-29T01:22:00.472Z,49.66
2022-11-29T01:23:00.412Z,51.39
2022-11-29T01:24:02.325Z,47.84
2022-11-29T01:25:00.458Z,50.46
2022-11-29T01:26:01.436Z,52.01
2022-11-29T01:27:00.509Z,51.49
2022-11-29T01:28:00.482Z,53.69
2022-11-29T01:29:00.487Z,49.58
2022-11-29T01:30:00.653Z,50.62
2022-11-29T01:31:00.608Z,51.91
2022-11-29T01:32:01.923Z,50.18
2022-11-29T01:33:00.449Z,51.04
2022-11-29T01:34:00.746Z,46.89
2022-11-29T01:35:00.751Z,46.96
2022-11-29T01:36:06.086Z,50.53
2022-11-29T01:37:00.370Z,48.40
2022-11-29T01:38:01.435Z,49.57
2022-11-29T01:39:00.526Z,50.55
2022-11-29T01:40:01.625Z,49.27
2022-11-29T01:41:00.317Z,46.41
2022-11-29T01:42:01.914Z,50.95
2022-11-29T01:45:00.554Z,51.50
2022-11-29T01:46:00.608Z,49.06
2022-11-29T01:47:00.599Z,48.63
2022-11-29T01:48:00.551Z,47.94
2022-11-29T01:49:00.355Z,48.18
2022-11-29T01:50:00.454Z,50.35
2022-11-29T01:51:00.389Z,46.69
2022-11-29T01:52:00.386Z,50.86
2022-11-29T01:53:01.207Z,51.85
2022-11-29T01:54:00.439Z,49.04
2022-11-29T01:55:00.411Z,48.20
2022-11-29T01:56:00.339Z,51.37
2022-11-29T01:57:01.565Z,51.03
2022-11-29T01:58:00.514Z,49.39
2022-11-29T01:59:01.535Z,49.88
2022-11-29T02:00:00.619Z,49.67
2022-11-29T02:01:01.518Z,50.91
2022-11-29T02:02:00.484Z,55.27
2022-11-29T02:03:00.441Z,50.20
2022-11-29T02:04:00.866Z,51.79
2022-11-29T02:05:05.499Z,48.88
2022-11-29T02:06:02.128Z,50.81
2022-11-29T02:07:00.407Z,49.87
2022-11-29T02:08:00.534Z,49.36
2022-11-29T02:09:00.752Z,52.95
2022-11-29T02:10:00.547Z,50.51
2022-11-29T02:11:00.354Z,54.03
2022-11-29T02:12:00.387Z,48.71
2022-11-29T02:13:00.453Z,48.29
2022-11-29T02:14:00.457Z,51.83
2022-11-29T02:15:00.633Z,49.85
2022-11-29T02:16:00.629Z,54.86
2022-11-29T02:17:00.531Z,47.81
2022-11-29T02:18:00.395Z,51.47
2022-11-29T02:19:00.445Z,50.89
2022-11-29T02:20:00.427Z,46.75
2022-11-29T02:21:03.885Z,51.78
2022-11-29T02:22:00.450Z,53.51
2022-11-29T02:23:00.354Z,47.80
2022-11-29T02:24:00.523Z,49.60
2022-11-29T02:25:00.453Z,48.36
2022-11-29T02:26:01.468Z,49.92
2022-11-29T02:28:01.500Z,51.31
2022-11-29T02:29:00.359Z,52.77
2022-11-29T02:30:02.017Z,50.29
2022-11-29T02:31:00.455Z,50.11
2022-11-29T02:32:01.475Z,52.14
2022-11-29T02:33:00.369Z,49.55
2022-11-29T02:34:01.415Z,53.61
2022-11-29T02:35:00.366Z,49.84
2022-11-29T02:36:01.717Z,48.61
2022-11-29T02:37:00.525Z,50.78
2022-11-29T02:38:01.569Z,52.55
2022-11-29T02:39:00.448Z,49.61
2022-11-29T02:40:00.566Z,50.45
2022-11-29T02:41:00.522Z,50.89
2022-11-29T02:42:00.669Z,50.75
2022-11-29T02:43:00.413Z,50.03
2022-11-29T02:44:00.458Z,50.54
2022-11-29T02:45:00.467Z,53.47
2022-11-29T02:46:00.555Z,49.10
2022-11-29T02:47:01.317Z,48.80
2022-11-29T02:48:00.926Z,47.64
2022-11-29T02:49:01.565Z,52.42
2022-11-29T02:50:00.478Z,52.03
2022-11-29T02:51:00.500Z,48.12
2022-11-29T02:52:00.669Z,50.61
2022-11-29T02:53:01.536Z,51.62
2022-11-29T02:54:00.918Z,50.32
2022-11-29T02:55:00.713Z,49.03
2022-11-29T02:56:00.440Z,51.21
2022-11-29T02:57:00.391Z,51.38
2022-11-29T02:58:00.452Z,47.04
2022-11-29T02:59:02.707Z,50.15
2022-11-29T03:00:02.475Z,48.91
2022-11-29T03:01:01.481Z,51.54
2022-11-29T03:02:00.521Z,49.52
2022-11-29T03:03:01.439Z,50.23
2022-11-29T03:04:00.522Z,49.79
2022-11-29T03:05:00.459Z,49.11
2022-11-29T03:06:00.410Z,52.44
2022-11-29T03:07:00.452Z,50.03
2022-11-29T03:08:00.438Z,50.53
2022-11-29T03:09:00.773Z,48.90
2022-11-29T03:10:00.848Z,46.25
2022-11-29T03:11:00.402Z,49.43
2022-11-29T03:12:00.596Z,47.45
2022-11-29T03:13:00.419Z,49.54
2022-11-29T03:14:01.076Z,47.30
2022-11-29T03:15:00.393Z,45.83
2022-11-29T03:16:00.560Z,50.52
2022-11-29T03:17:00.448Z,51.64
2022-11-29T03:18:01.500Z,51.28
2022-11-29T03:19:00.345Z,51.45
2022-11-29T03:20:01.435Z,51.57
2022-11-29T03:21:04.147Z,51.80
2022-11-29T03:22:01.475Z,47.04
2022-11-29T03:23:01.855Z,49.59
2022-11-29T03:24:00.348Z,49.24
2022-11-29T03:25:00.356Z,50.59
2022-11-29T03:26:00.609Z,49.68
2022-11-29T03:27:00.361Z,46.94
2022-11-29T03:28:01.481Z,46.14
2022-11-29T03:29:00.347Z,49.99
2022-11-29T03:30:01.159Z,49.92
2022-11-29T03:31:00.450Z,48.48
2022-11-29T03:32:00.944Z,50.38
2022-11-29T03:33:00.375Z,48.22
2022-11-29T03:34:00.532Z,45.78
2022-11-29T03:35:00.307Z,48.19
2022-11-29T03:36:05.252Z,51.35
2022-11-29T03:37:00.421Z,49.61
2022-11-29T03:38:00.461Z,44.94
2022-11-29T03:39:00.322Z,52.13
2022-11-29T03:40:00.420Z,46.87
2022-11-29T03:41:00.566Z,46.39
2022-11-29T03:42:00.591Z,46.08
2022-11-29T03:43:00.957Z,44.69
2022-11-29T03:44:00.439Z,44.25
2022-11-29T03:45:00.352Z,44.45
2022-11-29T03:46:00.448Z,45.98
2022-11-29T03:47:00.704Z,47.41
2022-11-29T03:48:00.406Z,49.33
2022-11-29T03:49:01.431Z,47.15
2022-11-29T03:50:00.348Z,42.50
2022-11-29T03:51:00.731Z,45.24
2022-11-29T03:52:00.532Z,49.14
2022-11-29T03:53:01.718Z,46.10
2022-11-29T03:54:00.567Z,44.69
2022-11-29T03:55:00.849Z,44.23
2022-11-29T03:56:00.467Z,44.86
2022-11-29T03:57:00.357Z,45.38
2022-11-29T03:58:00.430Z,48.18
2022-11-29T03:59:00.467Z,46.27
2022-11-29T04:00:00.600Z,44.52
2022-11-29T04:01:00.479Z,48.41
2022-11-29T04:02:01.749Z,48.94
2022-11-29T04:03:00.376Z,44.37
2022-11-29T04:04:00.406Z,45.29
2022-11-29T04:05:06.723Z,48.57
2022-11-29T04:06:00.387Z,45.93
2022-11-29T04:07:00.484Z,46.54
2022-11-29T04:08:00.453Z,44.15
2022-11-29T04:09:00.559Z,45.61
2022-11-29T04:10:00.459Z,48.03
2022-11-29T04:11:00.445Z,45.67
2022-11-29T04:12:01.496Z,42.97
2022-11-29T04:13:00.395Z,43.44
2022-11-29T04:14:00.796Z,44.79
2022-11-29T04:15:00.409Z,45.88
2022-11-29T04:16:01.214Z,45.59
2022-11-29T04:17:00.619Z,46.58
2022-11-29T04:18:00.353Z,48.63
2022-11-29T04:19:00.343Z,47.23
2022-11-29T04:20:00.364Z,46.49
2022-11-29T04:21:00.471Z,48.32
2022-11-29T04:22:00.531Z,46.36
2022-11-29T04:23:00.374Z,46.87
2022-11-29T04:24:00.622Z,46.12
2022-11-29T04:25:00.459Z,53.18
2022-11-29T04:26:00.406Z,48.74
2022-11-29T04:27:00.471Z,49.06
2022-11-29T04:28:00.478Z,47.61
2022-11-29T04:29:00.468Z,46.02
2022-11-29T04:30:00.504Z,46.52
2022-11-29T04:31:00.425Z,47.79
2022-11-29T04:32:00.504Z,48.88
2022-11-29T04:33:00.429Z,47.98
2022-11-29T04:34:00.500Z,46.92
2022-11-29T04:35:00.520Z,45.76
2022-11-29T04:36:00.475Z,44.80
2022-11-29T04:37:00.345Z,43.85
2022-11-29T04:38:00.581Z,47.25
2022-11-29T04:39:00.440Z,44.38
2022-11-29T04:40:00.535Z,46.07
2022-11-29T04:41:00.400Z,45.33
2022-11-29T04:42:00.484Z,45.06
2022-11-29T04:43:00.381Z,46.64
2022-11-29T04:44:00.564Z,77.05
2022-11-29T04:45:00.387Z,47.52
2022-11-29T04:46:00.705Z,47.47
2022-11-29T04:47:00.315Z,46.22
2022-11-29T04:48:00.370Z,47.66
2022-11-29T04:49:00.555Z,47.21
2022-11-29T04:50:00.388Z,46.35
2022-11-29T04:51:00.475Z,45.01
2022-11-29T04:52:00.881Z,47.18
2022-11-29T04:53:00.392Z,45.03
2022-11-29T04:54:00.487Z,47.50
2022-11-29T04:55:00.365Z,44.06
2022-11-29T04:56:00.588Z,48.42
2022-11-29T04:57:00.519Z,44.29
2022-11-29T04:58:00.380Z,45.33
2022-11-29T04:59:00.378Z,44.45
2022-11-29T05:00:01.929Z,45.12
2022-11-29T05:01:00.516Z,45.07
2022-11-29T05:02:00.980Z,46.43
2022-11-29T05:03:00.395Z,48.27
2022-11-29T05:04:00.358Z,45.43
2022-11-29T05:05:00.385Z,46.36
2022-11-29T05:06:00.428Z,51.20
2022-11-29T05:07:00.389Z,42.56
2022-11-29T05:08:00.570Z,43.76
2022-11-29T05:09:00.473Z,53.78
2022-11-29T05:10:00.377Z,64.59
2022-11-29T05:11:00.488Z,49.44
2022-11-29T05:12:00.409Z,47.20
2022-11-29T05:13:00.376Z,47.06
2022-11-29T05:14:00.832Z,47.26
2022-11-29T05:15:02.680Z,44.25
2022-11-29T05:16:00.460Z,43.89
2022-11-29T05:17:00.366Z,44.16
2022-11-29T05:18:00.339Z,47.26
2022-11-29T05:19:01.836Z,44.57
2022-11-29T05:20:00.558Z,44.72
2022-11-29T05:21:00.344Z,45.65
2022-11-29T05:22:00.576Z,43.98
2022-11-29T05:23:00.400Z,46.65
2022-11-29T05:24:00.627Z,47.71
2022-11-29T05:25:00.390Z,42.97
2022-11-29T05:26:00.604Z,46.18
2022-11-29T05:27:00.419Z,46.66
2022-11-29T05:28:03.358Z,45.73
2022-11-29T05:29:00.331Z,42.76
2022-11-29T05:30:00.541Z,44.41
2022-11-29T05:31:00.423Z,43.23
2022-11-29T05:32:00.692Z,42.82
2022-11-29T05:33:00.758Z,44.72
2022-11-29T05:34:00.439Z,42.68
2022-11-29T05:35:00.317Z,39.61
2022-11-29T05:36:00.461Z,43.16
2022-11-29T05:37:00.372Z,42.29
2022-11-29T05:38:00.560Z,45.56
2022-11-29T05:39:00.416Z,42.27
2022-11-29T05:40:00.436Z,43.25
2022-11-29T05:41:00.488Z,50.47
2022-11-29T05:42:00.349Z,51.34
2022-11-29T05:43:02.529Z,48.91
2022-11-29T05:44:00.421Z,42.25
2022-11-29T05:45:00.382Z,45.46
2022-11-29T05:46:00.432Z,43.80
2022-11-29T05:47:00.456Z,43.01
2022-11-29T05:48:00.466Z,45.98
2022-11-29T05:49:00.330Z,42.35
2022-11-29T05:50:00.382Z,43.59
2022-11-29T05:51:00.407Z,45.21
2022-11-29T05:52:00.669Z,41.17
2022-11-29T05:53:00.575Z,46.23
2022-11-29T05:54:00.621Z,41.10
2022-11-29T05:55:00.357Z,42.27
2022-11-29T05:56:00.494Z,43.43
2022-11-29T05:57:00.471Z,43.52
2022-11-29T05:58:01.644Z,41.97
2022-11-29T05:59:00.394Z,43.80
2022-11-29T06:00:00.698Z,44.72
2022-11-29T06:01:00.414Z,42.01
2022-11-29T06:02:00.418Z,44.01
2022-11-29T06:03:00.520Z,43.33
2022-11-29T06:04:00.513Z,41.46
2022-11-29T06:05:00.531Z,49.88
2022-11-29T06:06:00.396Z,43.25
2022-11-29T06:07:00.322Z,44.10
2022-11-29T06:08:00.518Z,40.31
2022-11-29T06:09:00.581Z,41.37
2022-11-29T06:10:02.040Z,41.21
2022-11-29T06:11:00.432Z,40.59
2022-11-29T06:12:00.746Z,41.16
2022-11-29T06:13:00.382Z,43.63
2022-11-29T06:14:00.532Z,43.89
2022-11-29T06:15:00.427Z,44.61
2022-11-29T06:16:00.558Z,42.08
2022-11-29T06:17:00.356Z,43.17
2022-11-29T06:18:00.374Z,43.78
2022-11-29T06:19:00.341Z,45.32
2022-11-29T06:21:00.435Z,43.32
2022-11-29T06:22:00.447Z,45.84
2022-11-29T06:23:01.419Z,44.74
2022-11-29T06:24:00.479Z,45.46
2022-11-29T06:25:00.984Z,44.90
2022-11-29T06:26:03.890Z,42.66
2022-11-29T06:27:00.531Z,46.04
2022-11-29T06:28:00.469Z,46.27
2022-11-29T06:29:00.625Z,42.54
2022-11-29T06:30:00.335Z,44.95
2022-11-29T06:31:00.747Z,42.17
2022-11-29T06:32:00.402Z,46.73
2022-11-29T06:33:00.380Z,45.18
2022-11-29T06:34:00.544Z,42.13
2022-11-29T06:35:00.463Z,42.76
2022-11-29T06:36:00.706Z,41.05
2022-11-29T06:37:00.325Z,43.05
2022-11-29T06:38:01.644Z,44.57
2022-11-29T06:39:00.289Z,44.08
2022-11-29T06:40:00.396Z,44.26
2022-11-29T06:41:02.332Z,44.33
2022-11-29T06:42:00.569Z,48.30
2022-11-29T06:43:00.346Z,45.35
2022-11-29T06:44:00.371Z,48.37
2022-11-29T06:45:00.356Z,42.70
2022-11-29T06:46:00.415Z,44.24
2022-11-29T06:47:00.684Z,44.17
2022-11-29T06:48:00.432Z,42.90
2022-11-29T06:49:02.274Z,41.20
2022-11-29T06:50:01.689Z,41.74
2022-11-29T06:51:00.302Z,41.43
2022-11-29T06:52:01.080Z,43.20
2022-11-29T06:53:00.397Z,41.93
2022-11-29T06:54:00.957Z,44.46
2022-11-29T06:55:00.365Z,45.29
2022-11-29T06:56:00.605Z,46.55
2022-11-29T06:57:00.364Z,42.17
2022-11-29T06:58:01.492Z,41.29
2022-11-29T06:59:00.388Z,43.36
2022-11-29T07:00:01.359Z,43.29
2022-11-29T07:01:00.535Z,39.63
2022-11-29T07:02:00.476Z,44.26
2022-11-29T07:03:00.302Z,47.09
2022-11-29T07:04:00.467Z,42.44
2022-11-29T07:05:00.432Z,40.77
2022-11-29T07:06:00.533Z,40.60
2022-11-29T07:07:00.386Z,44.65
2022-11-29T07:08:00.522Z,44.36
2022-11-29T07:09:01.705Z,43.52
2022-11-29T07:10:00.429Z,43.56
2022-11-29T07:11:01.097Z,42.40
2022-11-29T07:12:00.455Z,42.82
2022-11-29T07:13:00.334Z,45.39
2022-11-29T07:14:00.439Z,44.77
2022-11-29T07:15:01.915Z,45.51
2022-11-29T07:16:00.412Z,44.37
2022-11-29T07:17:00.375Z,45.47
2022-11-29T07:18:00.426Z,48.38
2022-11-29T07:19:00.384Z,42.70
2022-11-29T07:20:01.946Z,42.54
2022-11-29T07:21:00.466Z,46.49
2022-11-29T07:22:00.587Z,43.66
2022-11-29T07:23:00.581Z,42.28
2022-11-29T07:24:00.424Z,42.58
2022-11-29T07:25:01.522Z,47.55
2022-11-29T07:26:00.549Z,43.50
2022-11-29T07:27:00.373Z,43.95
2022-11-29T07:28:00.417Z,46.16
2022-11-29T07:29:00.412Z,44.08
2022-11-29T07:30:00.464Z,41.44
2022-11-29T07:31:00.586Z,43.41
2022-11-29T07:32:01.217Z,40.01
2022-11-29T07:33:00.879Z,39.33
2022-11-29T07:34:00.534Z,43.98
2022-11-29T07:35:00.479Z,43.09
2022-11-29T07:36:00.739Z,43.34
2022-11-29T07:37:00.498Z,39.19
2022-11-29T07:38:00.541Z,38.73
2022-11-29T07:39:00.433Z,39.14
2022-11-29T07:40:01.732Z,40.95
2022-11-29T07:41:00.464Z,42.41
2022-11-29T07:42:01.665Z,42.12
2022-11-29T07:43:00.364Z,40.80
2022-11-29T07:44:01.468Z,42.57
2022-11-29T07:45:00.405Z,43.01
2022-11-29T07:46:01.661Z,44.15
2022-11-29T07:47:00.430Z,45.48
2022-11-29T07:48:00.660Z,43.53
2022-11-29T07:49:00.475Z,43.18
2022-11-29T07:50:00.484Z,41.71
2022-11-29T07:51:00.567Z,41.02
2022-11-29T07:52:00.426Z,41.92
2022-11-29T07:53:00.693Z,40.45
2022-11-29T07:54:00.609Z,40.32
2022-11-29T07:55:00.740Z,37.58
2022-11-29T07:56:00.425Z,38.93
2022-11-29T07:57:00.292Z,42.31
2022-11-29T07:58:00.458Z,39.87
2022-11-29T07:59:00.424Z,40.02
2022-11-29T08:00:00.692Z,41.60
2022-11-29T08:01:00.391Z,41.45
2022-11-29T08:02:00.497Z,39.85
2022-11-29T08:03:00.349Z,38.17
2022-11-29T08:04:00.506Z,37.94
2022-11-29T08:05:00.337Z,38.11
2022-11-29T08:06:00.509Z,37.94
2022-11-29T08:07:00.384Z,37.74
2022-11-29T08:08:00.435Z,37.96
2022-11-29T08:09:00.499Z,36.61
2022-11-29T08:10:00.612Z,38.45
2022-11-29T08:11:01.324Z,38.10
2022-11-29T08:12:00.403Z,38.44
2022-11-29T08:13:01.655Z,40.05
2022-11-29T08:14:00.455Z,38.75
2022-11-29T08:15:01.873Z,36.97
2022-11-29T08:16:00.659Z,38.72
2022-11-29T08:17:00.767Z,39.63
2022-11-29T08:18:00.419Z,39.81
2022-11-29T08:19:00.449Z,39.54
2022-11-29T08:20:04.018Z,40.72
2022-11-29T08:21:00.420Z,40.73
2022-11-29T08:22:00.334Z,36.84
2022-11-29T08:23:00.413Z,39.86
2022-11-29T08:24:00.403Z,39.29
2022-11-29T08:25:00.377Z,39.73
2022-11-29T08:26:01.604Z,40.21
2022-11-29T08:27:00.337Z,37.09
2022-11-29T08:28:01.502Z,38.65
2022-11-29T08:29:00.278Z,40.63
2022-11-29T08:30:01.831Z,38.61
2022-11-29T08:31:00.391Z,38.29
2022-11-29T08:32:01.102Z,39.45
2022-11-29T08:33:00.339Z,39.07
2022-11-29T08:34:00.345Z,41.13
2022-11-29T08:35:00.788Z,38.58
2022-11-29T08:36:00.398Z,37.32
2022-11-29T08:37:00.512Z,38.32
2022-11-29T08:38:00.409Z,38.70
2022-11-29T08:39:07.526Z,39.05
2022-11-29T08:40:00.450Z,38.30
2022-11-29T08:41:00.378Z,39.85
2022-11-29T08:42:01.462Z,37.19
2022-11-29T08:43:00.328Z,37.72
2022-11-29T08:44:01.443Z,37.61
2022-11-29T08:45:00.360Z,36.94
2022-11-29T08:46:00.505Z,37.38
2022-11-29T08:47:00.392Z,35.96
2022-11-29T08:48:00.549Z,37.37
2022-11-29T08:49:00.345Z,35.06
2022-11-29T08:50:00.623Z,36.19
2022-11-29T08:51:00.524Z,37.47
2022-11-29T08:52:00.625Z,35.08
2022-11-29T08:53:00.332Z,36.99
2022-11-29T08:54:00.474Z,37.46
2022-11-29T08:55:03.323Z,39.35
2022-11-29T08:56:00.373Z,35.05
2022-11-29T08:57:31.514Z,35.93
2022-11-29T08:58:00.370Z,35.07
2022-11-29T08:59:01.439Z,35.92
2022-11-29T09:00:01.842Z,37.09
2022-11-29T09:01:00.852Z,34.49
2022-11-29T09:02:00.457Z,35.58
2022-11-29T09:03:01.387Z,37.05
2022-11-29T09:04:00.352Z,36.78
2022-11-29T09:05:00.356Z,36.51
2022-11-29T09:06:00.388Z,34.68
2022-11-29T09:07:00.618Z,36.11
2022-11-29T09:08:00.534Z,36.02
2022-11-29T09:09:01.510Z,34.95
2022-11-29T09:10:00.434Z,36.88
2022-11-29T09:11:00.305Z,34.51
2022-11-29T09:12:01.673Z,36.57
2022-11-29T09:13:00.312Z,33.87
2022-11-29T09:14:00.373Z,37.00
2022-11-29T09:15:00.431Z,36.31
2022-11-29T09:16:00.415Z,35.39
2022-11-29T09:17:00.434Z,35.24
2022-11-29T09:18:02.610Z,33.77
2022-11-29T09:19:00.695Z,35.16
2022-11-29T09:20:01.753Z,33.20
2022-11-29T09:21:00.743Z,32.27
2022-11-29T09:22:00.513Z,32.99
2022-11-29T09:23:01.889Z,34.32
2022-11-29T09:24:01.017Z,33.29
2022-11-29T09:25:00.369Z,32.91
2022-11-29T09:26:01.403Z,33.04
2022-11-29T09:27:00.373Z,33.31
2022-11-29T09:28:01.419Z,34.55
2022-11-29T09:29:00.493Z,34.77
2022-11-29T09:30:01.472Z,35.01
2022-11-29T09:31:00.519Z,31.87
2022-11-29T09:32:01.548Z,32.25
2022-11-29T09:33:00.289Z,30.04
2022-11-29T09:34:01.712Z,31.11
2022-11-29T09:35:00.419Z,38.50
2022-11-29T09:36:01.440Z,31.57
2022-11-29T09:37:00.435Z,30.20
2022-11-29T09:38:00.490Z,30.13
2022-11-29T09:39:00.511Z,30.93
2022-11-29T09:40:00.564Z,27.86
2022-11-29T09:41:00.447Z,26.28
2022-11-29T09:42:00.771Z,25.78
2022-11-29T09:43:00.330Z,26.83
2022-11-29T09:44:00.446Z,23.41
2022-11-29T09:45:01.195Z,29.88
2022-11-29T09:46:00.442Z,39.38
2022-11-29T09:47:00.336Z,31.30
2022-11-29T09:48:00.430Z,33.31
2022-11-29T09:49:00.363Z,31.67
2022-11-29T09:50:00.401Z,31.12
2022-11-29T09:51:00.862Z,34.01
2022-11-29T09:52:00.515Z,34.34
2022-11-29T09:53:00.900Z,41.25
2022-11-29T09:54:00.335Z,37.11
2022-11-29T09:55:00.385Z,31.50
2022-11-29T09:56:00.528Z,35.40
2022-11-29T09:57:00.684Z,37.54
2022-11-29T09:58:00.386Z,35.66
2022-11-29T09:59:00.421Z,35.90
2022-11-29T10:00:00.594Z,33.13
2022-11-29T10:01:00.394Z,24.64
2022-11-29T10:02:00.447Z,23.07
2022-11-29T10:03:01.486Z,25.85
2022-11-29T10:04:00.365Z,29.01
2022-11-29T10:05:00.367Z,27.92
2022-11-29T10:06:00.436Z,28.39
2022-11-29T10:07:00.502Z,30.86
2022-11-29T10:08:00.614Z,36.53
2022-11-29T10:09:00.365Z,33.30
2022-11-29T10:10:00.465Z,37.97
2022-11-29T10:11:00.389Z,28.53
2022-11-29T10:12:01.582Z,30.87
2022-11-29T10:13:00.387Z,28.67
2022-11-29T10:14:00.512Z,31.09
2022-11-29T10:15:00.459Z,32.90
2022-11-29T10:16:00.672Z,28.49
2022-11-29T10:17:00.386Z,29.17
2022-11-29T10:18:01.320Z,28.02
2022-11-29T10:19:00.351Z,26.30
2022-11-29T10:20:00.760Z,27.97
2022-11-29T10:21:00.380Z,28.85
2022-11-29T10:22:00.452Z,29.28
2022-11-29T10:23:00.358Z,29.21
2022-11-29T10:24:01.074Z,27.74
2022-11-29T10:25:00.398Z,29.22
2022-11-29T10:26:00.477Z,25.26
2022-11-29T10:27:00.500Z,21.25
2022-11-29T10:28:01.533Z,18.09
2022-11-29T10:29:00.773Z,19.20
2022-11-29T10:30:00.440Z,20.88
2022-11-29T10:31:00.377Z,21.62
2022-11-29T10:32:00.416Z,19.77
2022-11-29T10:33:00.296Z,18.21
2022-11-29T10:34:00.473Z,17.93
2022-11-29T10:35:01.622Z,18.08
2022-11-29T10:36:00.415Z,17.66
2022-11-29T10:37:00.367Z,17.59
2022-11-29T10:38:29.809Z,17.55
2022-11-29T10:39:00.330Z,18.41
2022-11-29T10:40:00.608Z,17.53
2022-11-29T10:41:00.365Z,20.14
2022-11-29T10:42:00.620Z,18.56
2022-11-29T10:43:00.670Z,16.39
2022-11-29T10:44:00.495Z,15.21
2022-11-29T10:45:00.369Z,15.82
2022-11-29T10:46:01.579Z,17.28
2022-11-29T10:47:00.855Z,17.88
2022-11-29T10:48:00.406Z,18.10
2022-11-29T10:49:01.398Z,17.25
2022-11-29T10:50:00.475Z,17.45
2022-11-29T10:51:00.901Z,16.57
2022-11-29T10:52:00.616Z,15.36
2022-11-29T10:53:01.483Z,16.91
2022-11-29T10:54:00.469Z,15.33
2022-11-29T10:55:01.356Z,13.40
2022-11-29T10:56:00.380Z,13.63
2022-11-29T10:57:00.624Z,13.30
2022-11-29T10:58:00.424Z,13.23
2022-11-29T10:59:00.316Z,14.63
2022-11-29T11:00:00.559Z,14.17
2022-11-29T11:01:00.466Z,14.36
2022-11-29T11:02:00.683Z,16.16
2022-11-29T11:03:00.399Z,15.67
2022-11-29T11:04:00.488Z,15.15
2022-11-29T11:05:00.344Z,15.27
2022-11-29T11:06:00.552Z,13.20
2022-11-29T11:07:00.351Z,13.42
2022-11-29T11:08:01.332Z,11.40
2022-11-29T11:09:00.405Z,12.61
2022-11-29T11:10:01.601Z,18.25
2022-11-29T11:11:02.041Z,13.02
2022-11-29T11:12:01.354Z,11.57
2022-11-29T11:13:00.617Z,13.24
2022-11-29T11:14:01.596Z,12.35
2022-11-29T11:15:00.336Z,12.93
2022-11-29T11:16:01.555Z,12.95
2022-11-29T11:17:00.428Z,24.61
2022-11-29T11:18:01.474Z,12.98
2022-11-29T11:19:00.381Z,12.66
2022-11-29T11:20:01.645Z,12.97
2022-11-29T11:21:00.326Z,12.65
2022-11-29T11:22:00.388Z,11.94
2022-11-29T11:23:00.363Z,12.16
2022-11-29T11:24:00.735Z,14.74
2022-11-29T11:25:00.333Z,12.39
2022-11-29T11:26:00.414Z,14.20
2022-11-29T11:27:00.353Z,11.99
2022-11-29T11:28:00.442Z,12.60
2022-11-29T11:29:00.457Z,13.23
2022-11-29T11:30:00.539Z,14.32
2022-11-29T11:31:00.435Z,14.17
2022-11-29T11:32:02.065Z,16.38
2022-11-29T11:33:00.490Z,14.34
2022-11-29T11:34:00.536Z,12.83
2022-11-29T11:35:00.449Z,13.54
2022-11-29T11:36:00.598Z,13.96
2022-11-29T11:37:00.803Z,14.12
2022-11-29T11:38:00.384Z,12.32
2022-11-29T11:39:01.429Z,13.05
2022-11-29T11:40:00.591Z,14.81
2022-11-29T11:41:01.431Z,12.83
2022-11-29T11:42:01.870Z,11.20
2022-11-29T11:43:00.698Z,13.35
2022-11-29T11:44:00.411Z,12.49
2022-11-29T11:45:01.620Z,13.36
2022-11-29T11:46:02.492Z,13.52
2022-11-29T11:47:01.507Z,16.25
2022-11-29T11:48:00.495Z,16.18
2022-11-29T11:49:00.416Z,13.02
2022-11-29T11:50:00.494Z,11.63
2022-11-29T11:51:00.671Z,13.21
2022-11-29T11:52:01.463Z,14.25
2022-11-29T11:54:00.439Z,14.70
2022-11-29T11:55:00.318Z,15.35
2022-11-29T11:56:01.124Z,14.87
2022-11-29T11:57:00.544Z,13.98
2022-11-29T11:58:06.068Z,13.54
2022-11-29T11:59:00.486Z,13.77
2022-11-29T12:00:06.686Z,13.08
2022-11-29T12:01:04.983Z,14.30
2022-11-29T12:02:00.871Z,13.56
2022-11-29T12:03:00.471Z,20.74
2022-11-29T12:04:00.535Z,13.77
2022-11-29T12:05:00.460Z,13.20
2022-11-29T12:06:00.767Z,15.29
2022-11-29T12:07:00.354Z,17.53
2022-11-29T12:08:08.128Z,17.19
2022-11-29T12:09:00.396Z,18.74
2022-11-29T12:10:00.821Z,16.19
2022-11-29T12:11:05.549Z,14.50
2022-11-29T12:12:01.422Z,14.74
2022-11-29T12:13:00.369Z,13.89
2022-11-29T12:14:00.463Z,18.40
2022-11-29T12:15:00.337Z,16.19
2022-11-29T12:16:00.433Z,14.85
2022-11-29T12:17:00.572Z,15.43
2022-11-29T12:18:00.578Z,12.88
2022-11-29T12:19:00.452Z,12.61
2022-11-29T12:20:00.610Z,14.52
2022-11-29T12:21:00.434Z,14.08
2022-11-29T12:22:00.514Z,12.65
2022-11-29T12:23:02.412Z,15.72
2022-11-29T12:24:00.468Z,14.72
2022-11-29T12:25:00.622Z,12.68
2022-11-29T12:26:00.504Z,13.36
2022-11-29T12:27:00.634Z,13.89
2022-11-29T12:28:00.648Z,13.42
2022-11-29T12:29:01.569Z,13.21
2022-11-29T12:30:02.009Z,13.96
2022-11-29T12:31:00.373Z,15.10
2022-11-29T12:33:01.429Z,16.79
2022-11-29T12:34:00.424Z,14.81
2022-11-29T12:35:01.622Z,14.04
2022-11-29T12:36:00.379Z,14.13
2022-11-29T12:37:01.412Z,15.37
2022-11-29T12:38:00.454Z,14.82
2022-11-29T12:39:00.678Z,15.05
2022-11-29T12:40:00.369Z,15.95
2022-11-29T12:41:00.399Z,29.53
2022-11-29T12:42:00.417Z,15.61
2022-11-29T12:43:00.375Z,14.69
2022-11-29T12:44:00.484Z,14.50
2022-11-29T12:45:00.379Z,15.55
2022-11-29T12:46:00.550Z,17.73
2022-11-29T12:47:34.211Z,15.63
2022-11-29T12:48:00.590Z,15.32
2022-11-29T12:49:00.431Z,17.63
2022-11-29T12:50:01.315Z,16.67
2022-11-29T12:51:01.613Z,14.47
2022-11-29T12:52:00.568Z,23.93
2022-11-29T12:53:00.431Z,16.40
2022-11-29T12:54:01.643Z,15.77
2022-11-29T12:55:00.357Z,15.27
2022-11-29T12:56:00.838Z,15.23
2022-11-29T12:57:00.350Z,16.56
2022-11-29T12:58:00.682Z,17.25
2022-11-29T12:59:00.534Z,16.12
2022-11-29T13:00:01.786Z,18.72
2022-11-29T13:01:00.399Z,18.71
2022-11-29T13:02:01.195Z,19.58
2022-11-29T13:03:00.421Z,16.44
2022-11-29T13:04:01.467Z,16.29
2022-11-29T13:05:00.495Z,19.80
2022-11-29T13:06:00.434Z,16.20
2022-11-29T13:07:00.503Z,20.40
2022-11-29T13:08:00.663Z,27.73
2022-11-29T13:09:00.394Z,23.85
2022-11-29T13:10:00.413Z,17.75
2022-11-29T13:11:00.489Z,15.98
2022-11-29T13:12:01.030Z,24.95
2022-11-29T13:13:01.152Z,32.39
2022-11-29T13:14:20.121Z,23.32
2022-11-29T13:15:01.161Z,20.36